createdAt,value
2023-03-06T00:00:49.030Z,21.67
2023-03-06T00:01:49.450Z,21.64
2023-03-06T00:02:49.003Z,21.60
2023-03-06T00:03:48.925Z,21.64
2023-03-06T00:04:49.459Z,21.71
2023-03-06T00:05:48.652Z,21.69
2023-03-06T00:06:48.554Z,21.87
2023-03-06T00:07:48.569Z,21.78
2023-03-06T00:08:48.503Z,21.82
2023-03-06T00:09:48.570Z,21.98
2023-03-06T00:10:48.495Z,21.78
2023-03-06T00:11:48.486Z,21.94
2023-03-06T00:12:48.467Z,21.98
2023-03-06T00:13:48.462Z,22.00
2023-03-06T00:14:48.432Z,21.98
2023-03-06T00:15:48.752Z,22.00
2023-03-06T00:16:48.473Z,21.98
2023-03-06T00:17:48.665Z,22.00
2023-03-06T00:18:48.459Z,22.12
2023-03-06T00:19:48.578Z,22.05
2023-03-06T00:20:48.464Z,22.10
2023-03-06T00:21:48.470Z,22.12
2023-03-06T00:22:48.324Z,22.17
2023-03-06T00:23:48.582Z,22.12
2023-03-06T00:24:48.473Z,22.19
2023-03-06T00:25:48.590Z,22.24
2023-03-06T00:26:48.285Z,22.17
2023-03-06T00:27:48.301Z,22.22
2023-03-06T00:28:48.469Z,22.28
2023-03-06T00:29:48.477Z,22.33
2023-03-06T00:30:49.680Z,22.36
2023-03-06T00:31:49.134Z,22.38
2023-03-06T00:32:48.473Z,22.40
2023-03-06T00:33:48.393Z,22.28
2023-03-06T00:34:48.471Z,22.31
2023-03-06T00:35:48.225Z,22.38
2023-03-06T00:36:48.862Z,22.52
2023-03-06T00:37:48.196Z,22.36
2023-03-06T00:38:49.290Z,22.43
2023-03-06T00:39:48.590Z,22.45
2023-03-06T00:40:48.477Z,22.36
2023-03-06T00:41:48.586Z,22.43
2023-03-06T00:42:48.500Z,22.45
2023-03-06T00:43:48.203Z,22.50
2023-03-06T00:44:49.229Z,22.60
2023-03-06T00:45:48.463Z,22.43
2023-03-06T00:46:48.047Z,22.40
2023-03-06T00:47:48.576Z,22.45
2023-03-06T00:48:48.480Z,22.31
2023-03-06T00:49:48.005Z,22.33
2023-03-06T00:50:48.005Z,22.36
2023-03-06T00:51:48.021Z,22.38
2023-03-06T00:52:48.703Z,22.36
2023-03-06T00:53:48.490Z,22.26
2023-03-06T00:54:48.005Z,22.22
2023-03-06T00:55:48.193Z,22.17
2023-03-06T00:56:47.923Z,22.08
2023-03-06T00:57:47.952Z,22.15
2023-03-06T00:58:47.941Z,22.17
2023-03-06T00:59:47.989Z,22.10
2023-03-06T01:00:48.030Z,21.98
2023-03-06T01:01:47.999Z,22.00
2023-03-06T01:02:47.872Z,22.03
2023-03-06T01:03:48.096Z,21.91
2023-03-06T01:04:48.140Z,21.98
2023-03-06T01:05:48.163Z,22.03
2023-03-06T01:06:47.965Z,21.98
2023-03-06T01:07:48.226Z,21.89
2023-03-06T01:08:48.196Z,21.82
2023-03-06T01:09:48.284Z,21.87
2023-03-06T01:10:48.293Z,21.84
2023-03-06T01:11:48.313Z,21.78
2023-03-06T01:12:48.384Z,21.73
2023-03-06T01:13:47.980Z,21.73
2023-03-06T01:14:48.448Z,21.71
2023-03-06T01:15:48.496Z,21.73
2023-03-06T01:16:47.788Z,21.78
2023-03-06T01:17:48.512Z,21.69
2023-03-06T01:18:47.682Z,21.73
2023-03-06T01:19:47.671Z,21.78
2023-03-06T01:20:48.506Z,21.69
2023-03-06T01:21:48.680Z,21.78
2023-03-06T01:22:47.891Z,21.78
2023-03-06T01:23:48.550Z,21.75
2023-03-06T01:24:47.591Z,21.64
2023-03-06T01:25:47.601Z,21.75
2023-03-06T01:26:47.570Z,21.67
2023-03-06T01:27:47.598Z,21.64
2023-03-06T01:28:47.542Z,21.73
2023-03-06T01:29:47.571Z,21.67
2023-03-06T01:30:47.526Z,21.71
2023-03-06T01:31:47.638Z,21.64
2023-03-06T01:32:47.531Z,21.60
2023-03-06T01:33:47.500Z,21.60
2023-03-06T01:34:47.492Z,21.62
2023-03-06T01:35:47.609Z,21.67
2023-03-06T01:36:47.445Z,21.67
2023-03-06T01:37:47.460Z,21.73
2023-03-06T01:38:47.513Z,21.64
2023-03-06T01:39:47.436Z,21.75
2023-03-06T01:40:47.494Z,21.64
2023-03-06T01:41:47.514Z,21.71
2023-03-06T01:42:47.510Z,21.73
2023-03-06T01:43:47.386Z,21.73
2023-03-06T01:44:47.385Z,21.91
2023-03-06T01:45:47.395Z,21.80
2023-03-06T01:46:47.349Z,21.87
2023-03-06T01:47:47.501Z,21.91
2023-03-06T01:48:47.545Z,21.96
2023-03-06T01:49:47.544Z,22.00
2023-03-06T01:50:47.534Z,22.05
2023-03-06T01:51:47.541Z,22.00
2023-03-06T01:52:47.277Z,22.12
2023-03-06T01:53:47.539Z,22.08
2023-03-06T01:54:47.265Z,22.17
2023-03-06T01:55:47.249Z,22.15
2023-03-06T01:56:47.262Z,22.28
2023-03-06T01:57:47.235Z,22.26
2023-03-06T01:58:47.183Z,22.26
2023-03-06T01:59:47.548Z,22.26
2023-03-06T02:00:47.482Z,22.28
2023-03-06T02:01:47.193Z,22.40
2023-03-06T02:02:47.151Z,22.33
2023-03-06T02:03:47.160Z,22.31
2023-03-06T02:04:47.539Z,22.40
2023-03-06T02:05:47.552Z,22.52
2023-03-06T02:06:47.108Z,22.62
2023-03-06T02:07:47.116Z,22.52
2023-03-06T02:08:47.090Z,22.55
2023-03-06T02:09:47.438Z,22.62
2023-03-06T02:10:47.087Z,22.62
2023-03-06T02:11:47.131Z,22.62
2023-03-06T02:12:47.547Z,22.69
2023-03-06T02:13:47.064Z,22.69
2023-03-06T02:14:47.071Z,22.72
2023-03-06T02:15:47.033Z,22.84
2023-03-06T02:16:47.588Z,22.82
2023-03-06T02:17:47.557Z,22.87
2023-03-06T02:18:47.164Z,22.92
2023-03-06T02:19:47.009Z,22.97
2023-03-06T02:20:47.407Z,23.04
2023-03-06T02:21:47.122Z,23.12
2023-03-06T02:22:46.925Z,23.14
2023-03-06T02:23:47.566Z,23.17
2023-03-06T02:24:46.963Z,23.35
2023-03-06T02:25:47.570Z,23.35
2023-03-06T02:26:46.995Z,23.45
2023-03-06T02:27:47.599Z,23.64
2023-03-06T02:28:46.942Z,23.56
2023-03-06T02:29:46.866Z,23.69
2023-03-06T02:30:46.937Z,23.70
2023-03-06T02:31:46.914Z,23.76
2023-03-06T02:32:46.821Z,23.73
2023-03-06T02:33:46.980Z,23.73
2023-03-06T02:34:46.790Z,23.82
2023-03-06T02:35:46.842Z,23.96
2023-03-06T02:36:46.789Z,23.78
2023-03-06T02:37:46.776Z,23.95
2023-03-06T02:38:46.740Z,23.84
2023-03-06T02:39:47.173Z,24.00
2023-03-06T02:40:47.197Z,24.03
2023-03-06T02:41:47.238Z,24.29
2023-03-06T02:42:47.258Z,24.25
2023-03-06T02:43:46.691Z,24.31
2023-03-06T02:44:47.348Z,24.31
2023-03-06T02:45:47.324Z,24.38
2023-03-06T02:46:47.386Z,24.39
2023-03-06T02:47:47.416Z,24.46
2023-03-06T02:48:46.986Z,24.45
2023-03-06T02:49:47.467Z,24.52
2023-03-06T02:50:46.605Z,24.70
2023-03-06T02:51:46.616Z,24.62
2023-03-06T02:52:47.568Z,24.59
2023-03-06T02:53:46.589Z,24.70
2023-03-06T02:54:47.505Z,24.82
2023-03-06T02:55:46.579Z,24.88
2023-03-06T02:56:46.553Z,24.88
2023-03-06T02:57:46.602Z,24.84
2023-03-06T02:58:46.578Z,24.95
2023-03-06T02:59:46.520Z,24.98
2023-03-06T03:00:47.028Z,25.07
2023-03-06T03:01:46.587Z,25.06
2023-03-06T03:02:46.454Z,24.98
2023-03-06T03:03:46.586Z,25.06
2023-03-06T03:04:46.669Z,25.15
2023-03-06T03:05:46.442Z,25.12
2023-03-06T03:06:46.423Z,25.13
2023-03-06T03:07:47.274Z,25.04
2023-03-06T03:08:47.173Z,25.13
2023-03-06T03:09:46.416Z,25.06
2023-03-06T03:10:46.384Z,25.07
2023-03-06T03:11:46.585Z,25.16
2023-03-06T03:12:46.585Z,25.21
2023-03-06T03:13:46.598Z,25.30
2023-03-06T03:14:46.323Z,25.27
2023-03-06T03:15:46.639Z,25.36
2023-03-06T03:16:46.319Z,25.42
2023-03-06T03:17:46.337Z,25.44
2023-03-06T03:18:46.283Z,25.41
2023-03-06T03:19:46.313Z,25.58
2023-03-06T03:20:46.257Z,25.70
2023-03-06T03:21:46.285Z,25.55
2023-03-06T03:22:46.496Z,25.64
2023-03-06T03:23:46.260Z,25.70
2023-03-06T03:24:46.581Z,25.76
2023-03-06T03:25:46.596Z,25.78
2023-03-06T03:26:46.186Z,25.76
2023-03-06T03:27:46.193Z,25.88
2023-03-06T03:28:46.550Z,25.86
2023-03-06T03:29:46.181Z,25.89
2023-03-06T03:30:46.643Z,25.89
2023-03-06T03:31:46.972Z,25.88
2023-03-06T03:32:46.392Z,25.75
2023-03-06T03:33:46.153Z,25.84
2023-03-06T03:34:46.103Z,25.76
2023-03-06T03:35:46.668Z,25.84
2023-03-06T03:36:46.076Z,25.83
2023-03-06T03:37:46.607Z,25.78
2023-03-06T03:38:46.063Z,25.89
2023-03-06T03:39:46.069Z,26.00
2023-03-06T03:40:46.607Z,25.95
2023-03-06T03:41:46.038Z,26.00
2023-03-06T03:42:46.011Z,26.02
2023-03-06T03:43:46.028Z,25.94
2023-03-06T03:44:46.025Z,25.91
2023-03-06T03:45:45.995Z,25.89
2023-03-06T03:46:46.056Z,25.95
2023-03-06T03:47:45.973Z,25.92
2023-03-06T03:48:46.620Z,25.92
2023-03-06T03:49:45.948Z,26.07
2023-03-06T03:50:45.950Z,25.91
2023-03-06T03:51:46.627Z,25.91
2023-03-06T03:52:46.618Z,26.08
2023-03-06T03:53:46.629Z,26.10
2023-03-06T03:54:45.902Z,25.92
2023-03-06T03:55:45.887Z,26.03
2023-03-06T03:56:46.063Z,25.99
2023-03-06T03:57:45.854Z,26.00
2023-03-06T03:58:46.616Z,26.02
2023-03-06T03:59:45.906Z,26.07
2023-03-06T04:00:45.930Z,26.07
2023-03-06T04:01:46.657Z,26.17
2023-03-06T04:02:45.781Z,26.10
2023-03-06T04:03:45.778Z,26.26
2023-03-06T04:04:45.889Z,26.07
2023-03-06T04:05:45.764Z,26.15
2023-03-06T04:06:45.754Z,26.05
2023-03-06T04:07:45.943Z,26.02
2023-03-06T04:08:45.968Z,26.25
2023-03-06T04:09:45.704Z,26.12
2023-03-06T04:10:45.700Z,26.17
2023-03-06T04:11:45.717Z,26.17
2023-03-06T04:12:45.671Z,26.07
2023-03-06T04:13:45.669Z,26.15
2023-03-06T04:14:45.646Z,26.12
2023-03-06T04:15:45.657Z,26.20
2023-03-06T04:16:45.622Z,26.20
2023-03-06T04:17:45.637Z,26.15
2023-03-06T04:18:45.594Z,26.10
2023-03-06T04:19:45.594Z,26.08
2023-03-06T04:20:45.638Z,26.17
2023-03-06T04:21:45.586Z,26.23
2023-03-06T04:22:45.574Z,26.20
2023-03-06T04:23:45.642Z,26.08
2023-03-06T04:24:45.532Z,26.13
2023-03-06T04:25:45.529Z,26.13
2023-03-06T04:26:45.505Z,26.03
2023-03-06T04:27:45.537Z,26.10
2023-03-06T04:28:45.637Z,25.92
2023-03-06T04:29:45.565Z,25.92
2023-03-06T04:30:45.478Z,25.97
2023-03-06T04:31:45.719Z,25.89
2023-03-06T04:32:45.672Z,25.76
2023-03-06T04:33:45.447Z,25.83
2023-03-06T04:34:45.434Z,25.92
2023-03-06T04:35:45.430Z,25.89
2023-03-06T04:36:45.648Z,25.78
2023-03-06T04:37:45.377Z,25.86
2023-03-06T04:38:45.449Z,25.86
2023-03-06T04:39:45.669Z,25.86
2023-03-06T04:40:45.360Z,25.89
2023-03-06T04:41:45.347Z,26.02
2023-03-06T04:42:45.338Z,25.97
2023-03-06T04:43:45.338Z,26.05
2023-03-06T04:44:45.672Z,26.21
2023-03-06T04:45:45.682Z,26.07
2023-03-06T04:46:45.666Z,26.18
2023-03-06T04:47:45.659Z,26.25
2023-03-06T04:48:45.678Z,26.33
2023-03-06T04:49:45.258Z,26.49
2023-03-06T04:50:45.248Z,26.53
2023-03-06T04:51:45.337Z,26.65
2023-03-06T04:52:45.359Z,26.63
2023-03-06T04:53:45.218Z,26.61
2023-03-06T04:54:45.276Z,26.71
2023-03-06T04:55:45.190Z,26.65
2023-03-06T04:56:45.178Z,26.66
2023-03-06T04:57:45.249Z,26.68
2023-03-06T04:58:45.156Z,26.63
2023-03-06T04:59:45.149Z,26.63
2023-03-06T05:00:45.628Z,26.56
2023-03-06T05:01:45.109Z,26.54
2023-03-06T05:02:45.112Z,26.46
2023-03-06T05:03:45.076Z,26.43
2023-03-06T05:04:45.142Z,26.44
2023-03-06T05:05:45.056Z,26.31
2023-03-06T05:06:45.077Z,26.39
2023-03-06T05:07:45.034Z,26.33
2023-03-06T05:08:45.410Z,26.15
2023-03-06T05:09:45.045Z,26.17
2023-03-06T05:10:45.015Z,26.07
2023-03-06T05:11:44.991Z,26.10
2023-03-06T05:12:44.994Z,26.17
2023-03-06T05:13:44.966Z,25.97
2023-03-06T05:14:47.668Z,25.91
2023-03-06T05:15:44.974Z,26.00
2023-03-06T05:16:45.744Z,25.86
2023-03-06T05:17:44.941Z,25.70
2023-03-06T05:18:44.922Z,25.68
2023-03-06T05:19:44.909Z,25.88
2023-03-06T05:20:44.923Z,25.67
2023-03-06T05:21:45.665Z,25.65
2023-03-06T05:22:44.890Z,25.55
2023-03-06T05:23:45.684Z,25.47
2023-03-06T05:24:45.061Z,25.33
2023-03-06T05:25:44.831Z,25.27
2023-03-06T05:26:45.684Z,25.18
2023-03-06T05:27:45.603Z,25.24
2023-03-06T05:28:45.694Z,25.34
2023-03-06T05:29:45.686Z,25.18
2023-03-06T05:30:45.692Z,25.25
2023-03-06T05:31:45.730Z,25.21
2023-03-06T05:32:45.679Z,25.13
2023-03-06T05:33:44.744Z,25.16
2023-03-06T05:34:44.749Z,25.12
2023-03-06T05:35:44.812Z,25.38
2023-03-06T05:36:44.749Z,25.16
2023-03-06T05:37:44.696Z,25.10
2023-03-06T05:38:44.705Z,25.13
2023-03-06T05:39:44.668Z,25.30
2023-03-06T05:40:44.685Z,25.19
2023-03-06T05:41:44.671Z,25.25
2023-03-06T05:42:44.661Z,25.12
2023-03-06T05:43:44.628Z,25.03
2023-03-06T05:44:44.637Z,25.13
2023-03-06T05:45:44.644Z,25.04
2023-03-06T05:46:44.621Z,24.95
2023-03-06T05:47:44.700Z,25.03
2023-03-06T05:48:46.813Z,25.06
2023-03-06T05:49:44.589Z,24.98
2023-03-06T05:50:44.583Z,24.97
2023-03-06T05:51:44.573Z,25.00
2023-03-06T05:52:44.574Z,24.90
2023-03-06T05:53:44.525Z,24.82
2023-03-06T05:54:44.509Z,24.94
2023-03-06T05:55:44.514Z,24.76
2023-03-06T05:56:44.506Z,24.84
2023-03-06T05:57:44.478Z,24.79
2023-03-06T05:58:45.492Z,24.78
2023-03-06T05:59:46.320Z,24.85
2023-03-06T06:00:44.448Z,24.82
2023-03-06T06:01:44.419Z,24.88
2023-03-06T06:02:44.458Z,24.79
2023-03-06T06:03:44.450Z,24.88
2023-03-06T06:04:44.400Z,24.84
2023-03-06T06:05:44.371Z,25.00
2023-03-06T06:06:44.783Z,24.81
2023-03-06T06:07:44.358Z,24.91
2023-03-06T06:08:44.367Z,24.82
2023-03-06T06:09:44.325Z,24.95
2023-03-06T06:10:44.329Z,24.85
2023-03-06T06:11:44.308Z,24.88
2023-03-06T06:12:44.304Z,25.03
2023-03-06T06:13:44.291Z,24.94
2023-03-06T06:14:44.306Z,24.78
2023-03-06T06:15:44.283Z,24.91
2023-03-06T06:16:44.824Z,24.90
2023-03-06T06:17:44.241Z,25.01
2023-03-06T06:18:44.238Z,25.00
2023-03-06T06:19:45.025Z,24.97
2023-03-06T06:20:44.225Z,24.95
2023-03-06T06:21:44.186Z,25.09
2023-03-06T06:22:44.187Z,24.98
2023-03-06T06:23:44.287Z,25.01
2023-03-06T06:24:44.184Z,25.09
2023-03-06T06:25:44.150Z,24.97
2023-03-06T06:26:44.143Z,25.01
2023-03-06T06:27:44.130Z,25.03
2023-03-06T06:28:44.131Z,25.06
2023-03-06T06:29:44.136Z,24.94
2023-03-06T06:30:44.110Z,24.90
2023-03-06T06:31:44.079Z,25.04
2023-03-06T06:32:44.074Z,24.87
2023-03-06T06:33:44.059Z,25.00
2023-03-06T06:34:44.057Z,24.91
2023-03-06T06:35:44.079Z,24.97
2023-03-06T06:36:44.045Z,24.92
2023-03-06T06:37:44.053Z,24.90
2023-03-06T06:38:44.021Z,24.91
2023-03-06T06:39:44.025Z,25.09
2023-03-06T06:40:45.653Z,24.91
2023-03-06T06:41:57.281Z,25.03
2023-03-06T06:42:44.986Z,24.98
2023-03-06T06:43:44.745Z,25.06
2023-03-06T06:44:43.949Z,24.91
2023-03-06T06:45:43.928Z,24.94
2023-03-06T06:47:21.883Z,24.97
2023-03-06T06:47:45.059Z,24.98
2023-03-06T06:48:43.905Z,24.95
2023-03-06T06:49:43.955Z,25.03
2023-03-06T06:50:43.879Z,25.04
2023-03-06T06:51:44.717Z,24.95
2023-03-06T06:52:43.866Z,24.88
2023-03-06T06:53:43.828Z,24.87
2023-03-06T06:54:44.154Z,24.78
2023-03-06T06:55:43.798Z,24.78
2023-03-06T06:56:44.477Z,24.88
2023-03-06T06:57:43.795Z,24.75
2023-03-06T06:58:43.783Z,24.76
2023-03-06T06:59:43.761Z,24.79
2023-03-06T07:00:43.765Z,24.79
2023-03-06T07:01:43.842Z,24.79
2023-03-06T07:02:43.767Z,24.72
2023-03-06T07:03:43.799Z,24.78
2023-03-06T07:05:00.421Z,24.58
2023-03-06T07:05:44.709Z,24.58
2023-03-06T07:06:43.768Z,24.66
2023-03-06T07:07:43.703Z,24.60
2023-03-06T07:08:43.662Z,24.49
2023-03-06T07:09:43.668Z,24.55
2023-03-06T07:10:43.639Z,24.50
2023-03-06T07:11:43.626Z,24.45
2023-03-06T07:12:43.629Z,24.45
2023-03-06T07:13:43.622Z,24.38
2023-03-06T07:14:43.584Z,24.38
2023-03-06T07:15:43.983Z,24.24
2023-03-06T07:16:43.573Z,24.25
2023-03-06T07:17:43.566Z,24.26
2023-03-06T07:18:43.764Z,24.18
2023-03-06T07:19:43.539Z,24.28
2023-03-06T07:20:43.518Z,24.29
2023-03-06T07:21:43.525Z,24.18
2023-03-06T07:22:50.912Z,24.14
2023-03-06T07:23:44.777Z,24.32
2023-03-06T07:24:43.483Z,24.22
2023-03-06T07:25:43.475Z,24.12
2023-03-06T07:26:44.275Z,24.10
2023-03-06T07:27:48.776Z,24.14
2023-03-06T07:28:52.298Z,24.15
2023-03-06T07:29:44.460Z,24.21
2023-03-06T07:30:43.405Z,24.07
2023-03-06T07:31:44.441Z,24.15
2023-03-06T07:32:43.407Z,24.08
2023-03-06T07:33:43.410Z,23.96
2023-03-06T07:34:43.406Z,24.08
2023-03-06T07:35:43.387Z,23.95
2023-03-06T07:36:43.351Z,24.00
2023-03-06T07:37:43.353Z,24.01
2023-03-06T07:38:43.323Z,23.89
2023-03-06T07:39:43.320Z,23.95
2023-03-06T07:40:43.297Z,23.89
2023-03-06T07:41:43.310Z,23.99
2023-03-06T07:42:43.799Z,24.00
2023-03-06T07:43:43.300Z,23.92
2023-03-06T07:44:43.250Z,23.91
2023-03-06T07:45:43.257Z,23.88
2023-03-06T07:46:43.270Z,23.89
2023-03-06T07:47:43.233Z,23.88
2023-03-06T07:48:43.240Z,23.70
2023-03-06T07:49:44.270Z,23.80
2023-03-06T07:50:43.805Z,23.76
2023-03-06T07:51:43.584Z,23.80
2023-03-06T07:52:43.982Z,23.72
2023-03-06T07:53:43.206Z,23.76
2023-03-06T07:54:43.142Z,23.68
2023-03-06T07:55:43.169Z,23.66
2023-03-06T07:56:43.231Z,23.62
2023-03-06T07:57:43.121Z,23.61
2023-03-06T07:58:43.298Z,23.59
2023-03-06T07:59:43.101Z,23.59
2023-03-06T08:00:43.069Z,23.64
2023-03-06T08:01:43.073Z,23.48
2023-03-06T08:02:43.090Z,23.66
2023-03-06T08:03:43.128Z,23.48
2023-03-06T08:04:43.020Z,23.51
2023-03-06T08:05:43.514Z,23.53
2023-03-06T08:06:42.995Z,23.56
2023-03-06T08:07:43.032Z,23.61
2023-03-06T08:08:42.973Z,23.56
2023-03-06T08:09:43.646Z,23.48
2023-03-06T08:10:42.958Z,23.51
2023-03-06T08:11:42.961Z,23.59
2023-03-06T08:12:42.930Z,23.51
2023-03-06T08:13:43.766Z,23.60
2023-03-06T08:14:43.798Z,23.53
2023-03-06T08:15:42.912Z,23.48
2023-03-06T08:16:42.960Z,23.35
2023-03-06T08:17:43.630Z,23.38
2023-03-06T08:18:45.021Z,23.40
2023-03-06T08:19:42.888Z,23.35
2023-03-06T08:20:42.841Z,23.35
2023-03-06T08:21:42.830Z,23.32
2023-03-06T08:22:42.812Z,23.35
2023-03-06T08:23:42.809Z,23.30
2023-03-06T08:24:42.796Z,23.38
2023-03-06T08:25:42.819Z,23.27
2023-03-06T08:26:42.780Z,23.17
2023-03-06T08:27:42.768Z,23.25
2023-03-06T08:28:42.743Z,23.27
2023-03-06T08:29:42.766Z,23.27
2023-03-06T08:30:42.727Z,23.40
2023-03-06T08:31:42.752Z,23.43
2023-03-06T08:32:42.739Z,23.38
2023-03-06T08:33:42.834Z,23.43
2023-03-06T08:34:42.772Z,23.45
2023-03-06T08:35:42.688Z,23.53
2023-03-06T08:36:42.651Z,23.65
2023-03-06T08:37:43.804Z,23.64
2023-03-06T08:38:42.830Z,23.86
2023-03-06T08:39:42.641Z,24.03
2023-03-06T08:40:42.597Z,24.06
2023-03-06T08:41:42.608Z,24.17
2023-03-06T08:42:42.567Z,24.39
2023-03-06T08:43:42.577Z,24.59
2023-03-06T08:44:42.578Z,24.94
2023-03-06T08:45:42.806Z,25.28
2023-03-06T08:46:42.841Z,25.56
2023-03-06T08:47:42.509Z,26.13
2023-03-06T08:48:42.537Z,26.88
2023-03-06T08:49:42.508Z,28.20
2023-03-06T08:50:42.486Z,30.14
2023-03-06T08:51:42.465Z,31.97
2023-03-06T08:52:42.471Z,33.18
2023-03-06T08:53:44.037Z,35.03
2023-03-06T08:54:42.445Z,36.65
2023-03-06T08:55:42.421Z,37.70
2023-03-06T08:56:42.527Z,38.08
2023-03-06T08:57:42.401Z,38.78
2023-03-06T08:58:42.395Z,39.25
2023-03-06T08:59:42.373Z,40.42
2023-03-06T09:00:42.422Z,41.70
2023-03-06T09:01:42.455Z,43.74
2023-03-06T09:02:42.900Z,45.68
2023-03-06T09:03:42.320Z,47.11
2023-03-06T09:04:42.344Z,48.03
2023-03-06T09:05:42.305Z,48.47
2023-03-06T09:06:42.329Z,49.01
2023-03-06T09:07:42.292Z,49.79
2023-03-06T09:08:42.275Z,50.94
2023-03-06T09:09:42.256Z,52.73
2023-03-06T09:10:42.392Z,55.96
2023-03-06T09:11:42.244Z,59.74
2023-03-06T09:12:51.281Z,63.43
2023-03-06T09:13:43.204Z,66.49
2023-03-06T09:14:42.241Z,69.29
2023-03-06T09:15:42.184Z,71.65
2023-03-06T09:16:42.253Z,73.34
2023-03-06T09:17:42.194Z,76.13
2023-03-06T09:18:42.867Z,78.84
2023-03-06T09:19:42.145Z,82.39
2023-03-06T09:20:42.146Z,85.50
2023-03-06T09:21:42.137Z,87.27
2023-03-06T09:22:42.142Z,89.31
2023-03-06T09:23:42.088Z,90.46
2023-03-06T09:24:43.223Z,91.15
2023-03-06T09:25:42.077Z,93.48
2023-03-06T09:26:47.064Z,94.19
2023-03-06T09:27:43.876Z,97.29
2023-03-06T09:28:42.107Z,99.84
2023-03-06T09:29:42.023Z,102.14
2023-03-06T09:30:42.290Z,105.47
2023-03-06T09:31:42.272Z,107.29
2023-03-06T09:32:42.337Z,109.17
2023-03-06T09:33:42.344Z,114.29
2023-03-06T09:34:42.377Z,121.13
2023-03-06T09:35:42.414Z,125.65
2023-03-06T09:36:55.278Z,128.34
2023-03-06T09:37:42.953Z,130.63
2023-03-06T09:38:42.508Z,132.28
2023-03-06T09:39:42.547Z,135.80
2023-03-06T09:40:41.933Z,138.72
2023-03-06T09:41:41.904Z,138.03
2023-03-06T09:42:41.921Z,141.40
2023-03-06T09:43:41.884Z,146.32
2023-03-06T09:44:41.891Z,152.70
2023-03-06T09:45:41.894Z,153.12
2023-03-06T09:46:41.876Z,153.12
2023-03-06T09:47:41.879Z,154.95
2023-03-06T09:48:41.881Z,156.69
2023-03-06T09:49:41.891Z,159.36
2023-03-06T09:50:41.902Z,161.35
2023-03-06T09:51:41.876Z,160.88
2023-03-06T09:52:41.889Z,159.51
2023-03-06T09:53:41.886Z,158.91
2023-03-06T09:54:41.777Z,161.35
2023-03-06T09:55:41.924Z,162.13
2023-03-06T09:56:41.905Z,162.44
2023-03-06T09:57:41.891Z,166.29
2023-03-06T09:58:41.897Z,167.62
2023-03-06T09:59:41.885Z,165.64
2023-03-06T10:00:41.896Z,161.66
2023-03-06T10:01:41.883Z,163.07
2023-03-06T10:02:41.961Z,163.54
2023-03-06T10:03:41.886Z,167.12
2023-03-06T10:04:41.991Z,171.21
2023-03-06T10:05:41.884Z,170.86
2023-03-06T10:06:41.895Z,178.10
2023-03-06T10:07:41.899Z,185.98
2023-03-06T10:08:41.902Z,190.47
2023-03-06T10:09:41.895Z,195.20
2023-03-06T10:10:41.568Z,191.35
2023-03-06T10:11:41.558Z,187.34
2023-03-06T10:12:41.609Z,182.15
2023-03-06T10:13:41.628Z,180.20
2023-03-06T10:14:41.666Z,184.55
2023-03-06T10:15:41.770Z,186.08
2023-03-06T10:16:41.732Z,192.36
2023-03-06T10:17:41.519Z,200.04
2023-03-06T10:18:41.798Z,206.79
2023-03-06T10:19:41.478Z,210.35
2023-03-06T10:20:41.874Z,216.27
2023-03-06T10:21:41.889Z,219.71
2023-03-06T10:22:41.612Z,222.08
2023-03-06T10:23:41.899Z,223.43
2023-03-06T10:24:41.572Z,227.74
2023-03-06T10:25:41.737Z,231.73
2023-03-06T10:26:41.966Z,230.76
2023-03-06T10:27:42.070Z,233.20
2023-03-06T10:28:41.640Z,242.79
2023-03-06T10:29:43.669Z,248.45
2023-03-06T10:30:41.934Z,251.09
2023-03-06T10:31:41.919Z,249.57
2023-03-06T10:32:48.814Z,249.95
2023-03-06T10:33:42.312Z,253.01
2023-03-06T10:34:41.927Z,254.38
2023-03-06T10:35:41.298Z,258.35
2023-03-06T10:36:41.929Z,262.87
2023-03-06T10:37:41.391Z,262.87
2023-03-06T10:38:41.925Z,264.77
2023-03-06T10:39:41.922Z,266.26
2023-03-06T10:40:41.922Z,269.95
2023-03-06T10:41:41.200Z,272.40
2023-03-06T10:42:41.229Z,278.60
2023-03-06T10:43:41.923Z,281.45
2023-03-06T10:44:41.612Z,280.73
2023-03-06T10:45:48.923Z,277.90
2023-03-06T10:46:42.425Z,280.25
2023-03-06T10:47:41.214Z,282.65
2023-03-06T10:48:42.448Z,290.09
2023-03-06T10:49:41.936Z,295.80
2023-03-06T10:50:41.941Z,297.40
2023-03-06T10:51:41.117Z,302.02
2023-03-06T10:52:41.933Z,305.08
2023-03-06T10:53:41.931Z,304.24
2023-03-06T10:54:41.448Z,310.24
2023-03-06T10:55:41.932Z,314.37
2023-03-06T10:56:41.055Z,320.77
2023-03-06T10:57:41.061Z,332.72
2023-03-06T10:58:41.082Z,342.01
2023-03-06T10:59:41.103Z,353.72
2023-03-06T11:00:41.144Z,365.05
2023-03-06T11:01:41.215Z,372.46
2023-03-06T11:02:41.315Z,378.92
2023-03-06T11:03:40.951Z,383.24
2023-03-06T11:04:41.040Z,383.46
2023-03-06T11:05:40.926Z,386.77
2023-03-06T11:06:40.943Z,385.66
2023-03-06T11:07:40.947Z,383.46
2023-03-06T11:08:40.952Z,383.68
2023-03-06T11:09:40.949Z,382.37
2023-03-06T11:10:40.952Z,388.34
2023-03-06T11:11:40.944Z,394.03
2023-03-06T11:12:40.956Z,395.19
2023-03-06T11:13:40.960Z,399.18
2023-03-06T11:14:40.977Z,404.96
2023-03-06T11:15:40.949Z,411.66
2023-03-06T11:16:40.972Z,415.48
2023-03-06T11:17:40.949Z,415.99
2023-03-06T11:18:41.001Z,420.94
2023-03-06T11:19:40.962Z,414.96
2023-03-06T11:20:50.957Z,408.16
2023-03-06T11:21:41.803Z,415.22
2023-03-06T11:22:41.356Z,418.06
2023-03-06T11:23:40.955Z,418.85
2023-03-06T11:24:40.959Z,418.85
2023-03-06T11:25:40.953Z,421.21
2023-03-06T11:26:40.963Z,420.68
2023-03-06T11:27:40.952Z,421.21
2023-03-06T11:28:40.778Z,432.88
2023-03-06T11:29:40.988Z,439.10
2023-03-06T11:30:40.763Z,436.82
2023-03-06T11:31:40.700Z,440.25
2023-03-06T11:32:40.971Z,443.45
2023-03-06T11:33:40.599Z,441.41
2023-03-06T11:34:40.604Z,442.87
2023-03-06T11:35:40.984Z,449.98
2023-03-06T11:36:40.588Z,459.21
2023-03-06T11:37:40.579Z,463.65
2023-03-06T11:38:40.538Z,466.22
2023-03-06T11:39:40.548Z,468.17
2023-03-06T11:40:40.521Z,468.83
2023-03-06T11:41:40.510Z,464.29
2023-03-06T11:42:40.492Z,465.58
2023-03-06T11:43:40.480Z,471.13
2023-03-06T11:44:40.484Z,484.72
2023-03-06T11:45:40.437Z,496.18
2023-03-06T11:46:40.476Z,511.28
2023-03-06T11:47:40.437Z,520.80
2023-03-06T11:48:40.426Z,533.62
2023-03-06T11:49:40.457Z,545.76
2023-03-06T11:50:40.403Z,549.78
2023-03-06T11:51:40.384Z,551.58
2023-03-06T11:52:40.446Z,553.86
2023-03-06T11:53:40.364Z,555.23
2023-03-06T11:54:40.374Z,550.23
2023-03-06T11:55:40.319Z,545.32
2023-03-06T11:56:40.327Z,546.65
2023-03-06T11:57:40.314Z,556.15
2023-03-06T11:58:40.312Z,561.73
2023-03-06T11:59:40.283Z,560.79
2023-03-06T12:00:40.312Z,565.99
2023-03-06T12:01:40.260Z,566.94
2023-03-06T12:02:40.255Z,564.56
2023-03-06T12:03:40.232Z,561.26
2023-03-06T12:04:40.224Z,563.61
2023-03-06T12:05:40.370Z,561.26
2023-03-06T12:06:40.222Z,568.38
2023-03-06T12:07:40.344Z,574.70
2023-03-06T12:08:40.215Z,589.32
2023-03-06T12:09:40.168Z,593.49
2023-03-06T12:10:40.192Z,597.71
2023-03-06T12:11:40.152Z,602.00
2023-03-06T12:12:40.222Z,610.75
2023-03-06T12:13:40.514Z,622.06
2023-03-06T12:14:40.209Z,635.00
2023-03-06T12:15:40.528Z,630.82
2023-03-06T12:16:40.577Z,638.01
2023-03-06T12:17:40.070Z,637.41
2023-03-06T12:18:40.113Z,626.71
2023-03-06T12:19:40.043Z,622.64
2023-03-06T12:20:40.502Z,620.34
2023-03-06T12:21:40.033Z,609.09
2023-03-06T12:22:40.022Z,609.64
2023-03-06T12:23:40.013Z,617.49
2023-03-06T12:24:40.018Z,625.54
2023-03-06T12:25:39.995Z,624.96
2023-03-06T12:26:40.018Z,621.49
2023-03-06T12:27:39.970Z,622.64
2023-03-06T12:28:39.944Z,619.77
2023-03-06T12:29:40.002Z,618.06
2023-03-06T12:30:40.011Z,626.12
2023-03-06T12:31:40.115Z,626.12
2023-03-06T12:32:40.012Z,630.82
2023-03-06T12:33:39.876Z,649.74
2023-03-06T12:34:39.949Z,661.90
2023-03-06T12:35:39.896Z,658.01
2023-03-06T12:36:39.947Z,663.21
2023-03-06T12:37:40.037Z,670.49
2023-03-06T12:38:39.839Z,675.88
2023-03-06T12:39:40.015Z,679.99
2023-03-06T12:40:39.902Z,677.25
2023-03-06T12:41:39.783Z,680.68
2023-03-06T12:42:39.802Z,682.75
2023-03-06T12:43:40.189Z,690.47
2023-03-06T12:44:40.020Z,684.84
2023-03-06T12:45:39.803Z,688.35
2023-03-06T12:46:39.739Z,690.47